Klickitat, WA

6:01 PM PDT on June 02, 2015 (GMT -0700)
Big Rock Ranch | | Change Station
CLOSE
Current Station
Personal Weather Station
Location: Goldendale, WA
Elevation: 1549 ft
Nearby Weather Stations

Elev 1549 ft 45.85 °N, 120.99 °W | Updated 1 second ago

Mostly Cloudy
Mostly Cloudy
61.7 °F
Feels Like 61.7 °F
N
3.6
Wind Variable Wind from SSW
Gusts 4.9 mph

Today
High -- | Low -- °F
--% Chance of Precip.
Yesterday
High -- | Low -- °F
Precip. -- in
5:17 AM 8:47 PM
Full, 100% visible
Pressure 30.00 in
Visibility 10.0 miles
Clouds Few 9000 ft
Overcast 11000 ft
Dew Point 47 °F
Humidity 59%
Rainfall 0.00 in
Snow Depth Not available.
UV 1 out of 12
Pollen 6.50 out of 12
Air Quality Not available.
Flu Activity Sporadic
METAR KDLS 030053Z AUTO 31017G22KT 10SM FEW090 OVC110 18/08 A3000 RMK AO2 PK WND 32029/0002 SLP157 T01830083

More Conditions Fewer Conditions

Pressure 30.00 in
Visibility 10.0 miles
Clouds Few 9000 ft
Overcast 11000 ft
Dew Point 47 °F
Humidity 59%
Rainfall 0.00 in
Snow Depth Not available.
UV 1 out of 12
Pollen 6.50 out of 12
Air Quality Not available.
Flu Activity Sporadic
METAR KDLS 030053Z AUTO 31017G22KT 10SM FEW090 OVC110 18/08 A3000 RMK AO2 PK WND 32029/0002 SLP157 T01830083

More Conditions Fewer Conditions

10-Day Weather Forecast

×

Almanac

Astronomy

Jun. 02, 2015 Rise Set
Actual Time
Civil Twilight
Nautical Twilight
Astronomical Twilight
Moon
Length of Visible Light
Length of Day
Tomorrow will be .
, % of the Moon is Illuminated

Today's Extremes

State Highs State Lows

Community

WunderPhotos

Upload Photos

1,826,085 photos uploaded!

WunderBlogs® & News

Nearby

Air Quality

  Air Quality AQ Index Pollutant
Not available.

Snow Depth

Station Depth Elevation

Earthquake Activity

City Distance Mag. Time & Date
Minimum magnitude displayed is 2.5.

Coastal Water Temperatures

Place Temperature

Stations

Nearby Weather Stations

Station Location Temp. Windchill Dew Point Humidity Wind Precip. Elev Updated Type